createdAt,value
2018-12-19T02:28:27.815Z,15.23
2018-12-19T02:30:02.786Z,15.10
2018-12-19T02:31:37.740Z,14.95
2018-12-19T02:33:12.678Z,15.08
2018-12-19T02:34:47.596Z,13.32
2018-12-19T02:36:22.510Z,14.65
2018-12-19T02:37:57.415Z,14.23
2018-12-19T02:39:36.152Z,14.98
2018-12-19T02:41:09.367Z,14.93
2018-12-19T02:42:44.299Z,15.55
2018-12-19T02:44:19.388Z,14.73
2018-12-19T02:45:54.387Z,14.90
2018-12-19T02:47:29.295Z,13.65
2018-12-19T02:49:04.299Z,14.25
2018-12-19T02:50:39.406Z,14.00
2018-12-19T02:52:14.510Z,14.38
2018-12-19T02:53:49.444Z,14.87
2018-12-19T02:55:24.360Z,14.00
2018-12-19T02:56:59.334Z,14.98
2018-12-19T02:58:37.320Z,15.28
2018-12-19T03:00:12.264Z,15.05
2018-12-19T03:01:47.181Z,14.73
2018-12-19T03:03:22.125Z,15.55
2018-12-19T03:04:57.104Z,15.15
2018-12-19T03:06:32.032Z,15.23
2018-12-19T03:08:06.945Z,15.00
2018-12-19T03:09:43.024Z,14.70
2018-12-19T03:11:18.505Z,16.55
2018-12-19T03:12:54.419Z,15.08
2018-12-19T03:14:29.519Z,15.53
2018-12-19T03:16:04.615Z,13.68
2018-12-19T03:17:39.596Z,13.78
2018-12-19T03:19:14.507Z,14.28
2018-12-19T03:20:49.403Z,15.03
2018-12-19T03:22:24.344Z,14.47
2018-12-19T03:24:05.855Z,14.40
2018-12-19T03:25:40.734Z,14.23
2018-12-19T03:27:15.723Z,13.65
2018-12-19T03:28:50.736Z,13.40
2018-12-19T03:30:25.746Z,13.58
2018-12-19T03:32:00.658Z,13.93
2018-12-19T03:33:35.692Z,12.93
2018-12-19T03:35:10.611Z,12.55
2018-12-19T03:36:45.592Z,12.90
2018-12-19T03:38:24.409Z,12.53
2018-12-19T04:08:34.103Z,11.57
2018-12-19T04:10:09.029Z,11.93
2018-12-19T04:11:43.948Z,12.45
2018-12-19T04:13:18.832Z,11.73
2018-12-19T04:14:53.754Z,11.53
2018-12-19T04:16:28.703Z,10.43
2018-12-19T04:18:03.580Z,12.47
2018-12-19T04:19:38.566Z,11.43
2018-12-19T04:21:13.496Z,10.80
2018-12-19T04:22:48.383Z,11.03
2018-12-19T04:24:23.323Z,11.57
2018-12-19T04:25:58.322Z,11.60
2018-12-19T04:27:33.294Z,11.03
2018-12-19T04:29:08.212Z,10.48
2018-12-19T04:30:43.142Z,10.98
2018-12-19T04:32:18.776Z,11.75
2018-12-19T04:33:53.792Z,11.40
2018-12-19T04:35:28.839Z,11.50
2018-12-19T04:37:03.829Z,12.20
2018-12-19T04:38:38.819Z,11.25
2018-12-19T04:40:13.794Z,12.40
2018-12-19T04:41:48.741Z,12.13
2018-12-19T04:43:24.258Z,11.03
2018-12-19T04:44:59.314Z,11.95
2018-12-19T04:46:34.495Z,11.05
2018-12-19T04:48:10.087Z,11.90
2018-12-19T04:49:45.099Z,11.00
2018-12-19T04:51:21.807Z,10.95
2018-12-19T04:52:57.059Z,11.83
2018-12-19T04:54:32.317Z,10.53
2018-12-19T04:56:07.637Z,11.20
2018-12-19T04:57:42.594Z,11.55
2018-12-19T04:59:17.573Z,10.55
2018-12-19T05:00:52.917Z,10.80
2018-12-19T05:02:27.843Z,11.12
2018-12-19T05:04:02.909Z,12.73
2018-12-19T05:05:37.890Z,11.65
2018-12-19T05:07:12.802Z,11.70
2018-12-19T05:08:47.830Z,11.65
2018-12-19T05:10:23.370Z,12.03
2018-12-19T05:11:58.330Z,11.63
2018-12-19T05:13:33.232Z,11.95
2018-12-19T05:15:11.308Z,11.90
2018-12-19T05:16:46.247Z,11.73
2018-12-19T05:18:21.200Z,11.40
2018-12-19T05:19:56.251Z,11.65
2018-12-19T05:21:31.412Z,11.83
2018-12-19T05:23:06.366Z,13.28
2018-12-19T05:24:41.320Z,11.90
2018-12-19T05:26:16.462Z,11.73
2018-12-19T05:27:51.407Z,12.82
2018-12-19T05:29:26.439Z,12.40
2018-12-19T05:31:01.835Z,12.78
2018-12-19T05:32:37.012Z,12.45
2018-12-19T05:34:11.892Z,11.85
2018-12-19T05:35:46.848Z,12.65
2018-12-19T05:37:21.927Z,11.80
2018-12-19T05:38:57.036Z,11.70
2018-12-19T05:40:32.014Z,12.23
2018-12-19T05:42:06.893Z,11.40
2018-12-19T05:43:42.169Z,12.28
2018-12-19T05:45:17.140Z,12.03
2018-12-19T05:46:52.166Z,13.00
2018-12-19T05:48:27.039Z,12.75
2018-12-19T05:50:02.599Z,13.18
2018-12-19T05:51:37.625Z,13.68
2018-12-19T05:53:12.951Z,12.78
2018-12-19T05:54:48.117Z,13.35
2018-12-19T05:56:23.215Z,14.78
2018-12-19T05:57:58.153Z,14.47
2018-12-19T05:59:33.061Z,12.88
2018-12-19T06:01:07.985Z,13.90
2018-12-19T06:02:42.968Z,13.83
2018-12-19T06:04:17.913Z,12.88
2018-12-19T06:05:52.953Z,13.85
2018-12-19T06:07:27.893Z,14.13
2018-12-19T06:09:04.520Z,13.70
2018-12-19T06:10:39.715Z,13.83
2018-12-19T06:12:14.751Z,15.10
2018-12-19T06:13:49.667Z,14.65
2018-12-19T06:15:24.619Z,14.65
2018-12-19T06:16:59.487Z,14.47
2018-12-19T06:18:34.764Z,14.43
2018-12-19T06:20:09.708Z,15.75
2018-12-19T06:21:44.616Z,15.50
2018-12-19T06:23:19.587Z,15.78
2018-12-19T06:24:54.575Z,15.72
2018-12-19T06:26:29.479Z,14.73
2018-12-19T06:28:04.423Z,15.95
2018-12-19T06:29:45.838Z,16.30
2018-12-19T06:31:20.835Z,15.00
2018-12-19T06:32:55.738Z,14.47
2018-12-19T06:34:30.642Z,14.60
2018-12-19T06:36:06.548Z,15.28
2018-12-19T06:37:41.814Z,15.45
2018-12-19T06:39:16.829Z,15.70
2018-12-19T06:40:51.771Z,15.00
2018-12-19T06:42:26.720Z,16.97
2018-12-19T06:44:01.731Z,15.95
2018-12-19T06:45:36.696Z,16.05
2018-12-19T06:47:11.644Z,14.98
2018-12-19T06:48:46.583Z,15.10
2018-12-19T06:50:21.568Z,15.23
2018-12-19T06:51:56.454Z,15.83
2018-12-19T06:53:31.359Z,15.15
2018-12-19T06:55:06.770Z,15.25
2018-12-19T06:56:41.767Z,16.27
2018-12-19T06:58:16.699Z,16.50
2018-12-19T06:59:51.611Z,15.88
2018-12-19T07:01:26.627Z,17.50
2018-12-19T07:03:01.557Z,16.30
2018-12-19T07:04:36.453Z,15.48
2018-12-19T07:06:11.360Z,15.80
2018-12-19T07:07:46.285Z,16.57
2018-12-19T07:09:21.493Z,15.63
2018-12-19T07:10:56.503Z,17.57
2018-12-19T07:12:31.448Z,17.17
2018-12-19T07:14:06.403Z,17.27
2018-12-19T07:15:41.359Z,16.87
2018-12-19T07:17:16.501Z,17.42
2018-12-19T07:18:51.378Z,17.65
2018-12-19T07:20:26.318Z,16.65
2018-12-19T07:22:01.322Z,15.20
2018-12-19T07:23:36.239Z,15.80
2018-12-19T07:25:11.110Z,15.70
2018-12-19T07:26:46.634Z,16.50
2018-12-19T07:28:21.633Z,15.65
2018-12-19T07:29:56.568Z,15.98
2018-12-19T07:31:31.523Z,14.78
2018-12-19T07:33:06.544Z,14.75
2018-12-19T07:34:44.282Z,15.10
2018-12-19T07:36:18.512Z,14.65
2018-12-19T07:37:53.795Z,15.15
2018-12-19T07:39:28.792Z,16.40
2018-12-19T07:41:03.956Z,16.67
2018-12-19T07:42:38.881Z,16.93
2018-12-19T07:44:13.779Z,16.85
2018-12-19T07:45:49.018Z,17.00
2018-12-19T07:47:24.053Z,16.77
2018-12-19T07:48:58.967Z,16.50
2018-12-19T07:50:34.252Z,16.97
2018-12-19T07:52:09.255Z,15.53
2018-12-19T07:53:44.250Z,15.90
2018-12-19T07:55:19.157Z,16.17
2018-12-19T07:56:54.087Z,16.07
2018-12-19T07:58:29.108Z,16.73
2018-12-19T08:00:04.716Z,17.00
2018-12-19T08:01:39.651Z,16.07
2018-12-19T08:03:14.596Z,14.90
2018-12-19T08:04:49.827Z,15.50
2018-12-19T08:06:24.847Z,15.60
2018-12-19T08:07:59.786Z,15.10
2018-12-19T08:09:34.932Z,15.95
2018-12-19T08:11:09.940Z,15.85
2018-12-19T08:12:45.092Z,16.40
2018-12-19T08:14:20.062Z,15.58
2018-12-19T08:15:54.979Z,15.78
2018-12-19T08:17:29.870Z,15.78
2018-12-19T08:19:04.882Z,15.78
2018-12-19T08:20:40.196Z,17.12
2018-12-19T08:22:15.111Z,15.40
2018-12-19T08:23:56.660Z,15.30
2018-12-19T08:25:31.631Z,15.15
2018-12-19T08:27:06.579Z,16.20
2018-12-19T08:28:42.156Z,16.15
2018-12-19T08:30:17.110Z,16.20
2018-12-19T08:31:52.124Z,16.00
2018-12-19T08:33:27.031Z,16.50
2018-12-19T08:35:01.907Z,14.68
2018-12-19T08:36:36.830Z,15.28
2018-12-19T08:38:11.799Z,15.08
2018-12-19T08:39:46.845Z,14.23
2018-12-19T08:41:21.770Z,14.43
2018-12-19T08:42:56.660Z,15.38
2018-12-19T08:44:31.657Z,15.50
2018-12-19T08:46:06.654Z,15.53
2018-12-19T08:47:41.643Z,13.90
2018-12-19T08:49:16.596Z,14.50
2018-12-19T08:50:51.499Z,14.15
2018-12-19T08:52:26.447Z,15.50
2018-12-19T08:54:01.374Z,14.87
2018-12-19T08:55:36.412Z,15.32
2018-12-19T08:57:11.391Z,13.93
2018-12-19T08:58:46.357Z,14.65
2018-12-19T09:00:21.905Z,15.98
2018-12-19T09:01:59.490Z,14.05
2018-12-19T09:03:34.659Z,16.00
2018-12-19T09:05:09.693Z,15.35
2018-12-19T09:06:44.605Z,13.88
2018-12-19T09:08:19.553Z,14.50
2018-12-19T09:10:00.431Z,14.58
2018-12-19T09:11:35.388Z,15.38
2018-12-19T09:13:10.350Z,14.73
2018-12-19T09:14:51.265Z,13.45
2018-12-19T09:16:26.428Z,13.90
2018-12-19T09:18:01.499Z,14.73
2018-12-19T09:19:36.779Z,13.65
2018-12-19T09:21:11.675Z,13.53
2018-12-19T09:22:46.865Z,14.53
2018-12-19T09:24:21.860Z,14.53
2018-12-19T09:25:56.933Z,15.38
2018-12-19T09:27:31.868Z,14.90
2018-12-19T09:29:06.858Z,14.35
2018-12-19T09:30:41.771Z,14.15
2018-12-19T09:32:16.730Z,14.68
2018-12-19T09:33:51.694Z,14.40
2018-12-19T09:35:26.652Z,14.28
2018-12-19T09:37:01.593Z,14.10
2018-12-19T09:38:36.540Z,14.73
2018-12-19T09:40:11.487Z,13.72
2018-12-19T09:41:46.519Z,14.25
2018-12-19T09:43:21.459Z,13.65
2018-12-19T09:44:56.434Z,13.90
2018-12-19T09:46:31.451Z,14.93
2018-12-19T09:48:06.723Z,13.72
2018-12-19T09:49:41.668Z,13.28
2018-12-19T09:51:16.650Z,13.90
2018-12-19T09:52:52.702Z,14.20
2018-12-19T09:54:27.916Z,14.00
2018-12-19T09:56:03.894Z,14.87
2018-12-19T09:57:39.768Z,13.85
2018-12-19T10:32:21.395Z,14.45
2018-12-19T10:34:45.108Z,13.75
2018-12-19T10:36:49.856Z,14.38
2018-12-19T10:38:38.446Z,14.68
2018-12-19T10:40:14.060Z,14.03
2018-12-19T10:41:49.128Z,14.18
2018-12-19T10:43:24.055Z,13.38
2018-12-19T10:44:59.054Z,14.93
2018-12-19T10:46:34.163Z,15.20
2018-12-19T10:48:09.107Z,14.93
2018-12-19T10:49:44.000Z,14.98
2018-12-19T10:51:18.990Z,14.03
2018-12-19T10:52:53.943Z,15.35
2018-12-19T10:54:28.879Z,15.18
2018-12-19T10:56:03.807Z,15.18
2018-12-19T10:57:39.095Z,15.78
2018-12-19T10:59:13.991Z,16.07
2018-12-19T11:01:04.076Z,15.78
2018-12-19T11:02:39.078Z,14.70
2018-12-19T11:04:13.979Z,14.55
2018-12-19T11:05:54.353Z,15.95
2018-12-19T11:07:25.801Z,15.03
2018-12-19T11:09:00.807Z,15.70
2018-12-19T11:10:35.758Z,16.90
2018-12-19T11:12:10.704Z,16.40
2018-12-19T11:13:45.667Z,15.43
2018-12-19T11:15:21.069Z,15.63
2018-12-19T11:16:56.015Z,16.70
2018-12-19T11:18:30.950Z,16.48
2018-12-19T11:20:06.368Z,17.75
2018-12-19T11:21:41.322Z,16.40
2018-12-19T11:23:16.255Z,15.78
2018-12-19T11:24:51.184Z,16.80
2018-12-19T11:26:27.284Z,16.45
2018-12-19T11:28:02.499Z,15.75
2018-12-19T11:29:37.403Z,17.15
2018-12-19T11:31:12.909Z,16.65
2018-12-19T11:32:47.821Z,18.25
2018-12-19T11:34:22.795Z,17.25
2018-12-19T11:35:57.812Z,18.98
2018-12-19T11:37:32.730Z,18.05
2018-12-19T11:39:09.178Z,19.52
2018-12-19T11:40:44.137Z,19.15
2018-12-19T11:42:19.987Z,21.70
2018-12-19T11:43:54.933Z,20.45
2018-12-19T11:45:29.864Z,19.02
2018-12-19T11:47:04.800Z,20.55
2018-12-19T11:48:39.838Z,20.43
2018-12-19T11:50:14.746Z,19.95
2018-12-19T11:51:49.700Z,21.40
2018-12-19T11:53:24.611Z,20.70
2018-12-19T11:54:59.559Z,20.08
2018-12-19T11:56:34.483Z,21.37
2018-12-19T11:58:09.388Z,20.52
2018-12-19T11:59:44.300Z,21.17
2018-12-19T12:01:19.336Z,20.72
2018-12-19T12:02:54.240Z,21.02
2018-12-19T12:04:29.160Z,21.27
2018-12-19T12:06:10.722Z,19.60
2018-12-19T12:07:45.731Z,20.43
2018-12-19T12:09:20.647Z,19.82
2018-12-19T12:10:55.571Z,21.07
2018-12-19T12:12:30.604Z,20.45
2018-12-19T12:14:05.669Z,20.68
2018-12-19T12:15:40.574Z,20.00
2018-12-19T12:17:15.475Z,19.95
2018-12-19T12:18:50.531Z,19.92
2018-12-19T12:20:25.462Z,19.55
2018-12-19T12:22:00.355Z,18.87
2018-12-19T12:23:35.288Z,19.62
2018-12-19T12:25:10.562Z,19.87
2018-12-19T12:26:45.470Z,18.82
2018-12-19T12:28:20.411Z,19.12
2018-12-19T12:29:55.311Z,18.90
2018-12-19T12:31:30.569Z,20.08
2018-12-19T12:33:05.514Z,20.55
2018-12-19T12:34:40.418Z,20.40
2018-12-19T12:36:15.332Z,21.85
2018-12-19T12:37:50.291Z,20.27
2018-12-19T12:39:25.228Z,20.90
2018-12-19T12:41:00.219Z,21.37
2018-12-19T12:42:35.204Z,20.02
2018-12-19T12:44:10.091Z,19.02
2018-12-19T12:45:45.087Z,20.90
2018-12-19T12:47:20.064Z,20.05
2018-12-19T12:48:55.268Z,19.90
2018-12-19T12:50:30.258Z,19.73
2018-12-19T12:52:05.190Z,19.60
2018-12-19T12:53:40.144Z,19.48
2018-12-19T12:55:15.064Z,18.15
2018-12-19T12:56:50.055Z,18.25
2018-12-19T12:58:24.975Z,19.62
2018-12-19T12:59:59.896Z,18.85
2018-12-19T13:01:34.791Z,17.87
2018-12-19T13:03:09.769Z,18.52
2018-12-19T13:04:44.674Z,19.65
2018-12-19T13:06:19.612Z,18.52
2018-12-19T13:07:54.539Z,19.30
2018-12-19T13:09:29.517Z,18.37
2018-12-19T13:11:04.536Z,18.85
2018-12-19T13:12:39.510Z,18.90
2018-12-19T13:14:14.419Z,19.85
2018-12-19T13:15:49.347Z,18.30
2018-12-19T13:17:24.289Z,18.52
2018-12-19T13:18:59.259Z,18.55
2018-12-19T13:20:34.259Z,18.65
2018-12-19T13:22:09.232Z,19.12
2018-12-19T13:23:44.199Z,18.15
2018-12-19T13:25:19.144Z,18.10
2018-12-19T13:26:54.120Z,19.07
2018-12-19T13:28:29.023Z,18.70
2018-12-19T13:30:07.141Z,19.80
2018-12-19T13:31:43.707Z,18.95
2018-12-19T13:33:25.254Z,18.85
2018-12-19T13:35:00.215Z,19.48
2018-12-19T13:36:35.269Z,19.52
2018-12-19T13:38:10.251Z,20.00
2018-12-19T13:39:45.230Z,19.95
2018-12-19T13:41:22.222Z,20.48
2018-12-19T13:43:14.307Z,21.10
2018-12-19T13:44:50.069Z,19.67
2018-12-19T13:46:26.965Z,20.20
2018-12-19T13:48:02.528Z,20.88
2018-12-19T13:53:57.625Z,22.52
2018-12-19T13:55:33.022Z,20.20
2018-12-19T13:57:11.207Z,20.30
2018-12-19T14:21:00.554Z,19.98
2018-12-19T14:22:41.904Z,20.25
2018-12-19T14:24:21.501Z,21.35
2018-12-19T14:26:07.858Z,20.20
2018-12-19T14:27:47.986Z,20.00
2018-12-19T14:29:25.640Z,21.12
2018-12-19T14:41:46.752Z,20.55
2018-12-19T14:43:36.466Z,20.25
2018-12-19T14:58:01.812Z,23.25
2018-12-19T14:59:37.220Z,21.57
2018-12-19T15:01:12.509Z,22.67
2018-12-19T15:02:47.914Z,21.05
2018-12-19T15:04:22.941Z,20.75
2018-12-19T15:05:58.000Z,21.17
2018-12-19T15:07:33.012Z,22.22
2018-12-19T15:09:09.181Z,22.10
2018-12-19T15:10:44.370Z,22.15
2018-12-19T15:12:25.572Z,23.02
2018-12-19T15:13:56.841Z,22.00
2018-12-19T15:15:32.068Z,23.05
2018-12-19T15:17:14.068Z,21.48
2018-12-19T15:18:49.109Z,21.30
2018-12-19T15:20:24.141Z,24.23
2018-12-19T15:21:59.168Z,23.07
2018-12-19T15:23:34.125Z,23.90
2018-12-19T15:25:09.183Z,22.50
2018-12-19T15:26:44.483Z,23.70
2018-12-19T15:28:19.457Z,23.65
2018-12-19T15:29:54.384Z,23.83
2018-12-19T15:31:29.360Z,23.75
2018-12-19T15:33:04.657Z,23.15
2018-12-19T15:34:39.627Z,24.35
2018-12-19T15:36:14.823Z,23.67
2018-12-19T15:37:49.715Z,23.27
2018-12-19T15:39:24.719Z,24.32
2018-12-19T15:40:59.735Z,23.98
2018-12-19T15:42:34.693Z,24.63
2018-12-19T15:44:09.664Z,24.47
2018-12-19T15:45:44.664Z,25.27
2018-12-19T15:47:19.624Z,25.50
2018-12-19T15:48:54.579Z,24.65
2018-12-19T15:50:29.599Z,25.68
2018-12-19T15:52:04.584Z,25.50
2018-12-19T15:53:39.559Z,25.92
2018-12-19T15:55:14.683Z,26.05
2018-12-19T15:56:49.635Z,25.20
2018-12-19T15:58:24.913Z,25.40
2018-12-19T15:59:59.836Z,26.02
2018-12-19T16:01:34.792Z,25.97
2018-12-19T16:03:09.713Z,26.70
2018-12-19T16:04:44.735Z,25.60
2018-12-19T16:06:19.655Z,26.85
2018-12-19T16:07:54.799Z,26.20
2018-12-19T16:09:29.743Z,27.50
2018-12-19T16:11:05.894Z,25.68
2018-12-19T16:12:40.899Z,26.55
2018-12-19T16:14:15.855Z,28.35
2018-12-19T16:15:50.799Z,26.10
2018-12-19T16:17:26.163Z,26.70
2018-12-19T16:19:08.231Z,28.27
2018-12-19T16:47:36.903Z,30.17
2018-12-19T16:49:11.898Z,28.77
2018-12-19T16:50:52.026Z,28.73
2018-12-19T16:52:26.973Z,29.18
2018-12-19T16:54:03.165Z,28.45
2018-12-19T16:55:39.018Z,27.80
2018-12-19T16:57:13.938Z,27.98
2018-12-19T16:58:48.884Z,28.30
2018-12-19T17:00:23.954Z,26.97
2018-12-19T17:01:58.900Z,29.90
2018-12-19T17:03:33.812Z,28.45
2018-12-19T17:05:09.436Z,28.92
2018-12-19T17:06:44.467Z,30.32
2018-12-19T17:08:19.470Z,27.93
2018-12-19T17:09:54.437Z,29.00
2018-12-19T17:11:29.460Z,31.55
2018-12-19T17:13:04.491Z,29.00
2018-12-19T17:14:39.430Z,29.40
2018-12-19T17:16:14.362Z,30.02
2018-12-19T17:17:49.332Z,29.75
2018-12-19T17:19:24.345Z,28.02
2018-12-19T17:20:59.259Z,29.37
2018-12-19T17:22:34.163Z,32.28
2018-12-19T17:24:09.104Z,29.18
2018-12-19T17:25:44.102Z,30.55
2018-12-19T17:27:19.083Z,30.12
2018-12-19T17:28:54.444Z,29.80
2018-12-19T17:30:29.719Z,31.40
2018-12-19T17:32:06.806Z,32.53
2018-12-19T17:33:41.899Z,33.00
2018-12-19T17:35:22.340Z,30.80
2018-12-19T17:36:57.801Z,31.70
2018-12-19T17:38:35.005Z,31.45
2018-12-19T17:40:10.523Z,31.70
2018-12-19T17:41:45.593Z,34.13
2018-12-19T17:43:26.087Z,30.60
2018-12-19T17:45:04.168Z,32.03
2018-12-19T17:46:39.108Z,32.93
2018-12-19T17:48:14.108Z,32.38
2018-12-19T17:49:49.047Z,31.37
2018-12-19T17:51:24.063Z,33.33
2018-12-19T17:52:58.985Z,33.45
2018-12-19T17:54:34.024Z,33.83
2018-12-19T17:56:09.011Z,33.42
2018-12-19T17:57:44.001Z,34.53
2018-12-19T17:59:19.085Z,35.95
2018-12-19T18:00:54.176Z,34.35
2018-12-19T18:04:25.467Z,34.70
2018-12-19T18:06:00.621Z,36.73
2018-12-19T18:07:35.672Z,33.48
2018-12-19T18:09:10.701Z,33.98
2018-12-19T18:10:45.759Z,36.33
2018-12-19T18:12:20.842Z,33.88
2018-12-19T18:13:55.980Z,34.80
2018-12-19T18:15:31.021Z,33.45
2018-12-19T18:17:06.197Z,35.25
2018-12-19T18:18:41.297Z,34.23
2018-12-19T18:20:16.399Z,36.15
2018-12-19T18:21:51.509Z,34.92
2018-12-19T18:23:26.627Z,36.65
2018-12-19T18:25:01.639Z,35.78
2018-12-19T18:26:36.778Z,35.30
2018-12-19T18:28:11.949Z,34.73
2018-12-19T18:29:47.085Z,34.45
2018-12-19T18:31:22.135Z,35.38
2018-12-19T18:32:57.248Z,35.30
2018-12-19T18:34:32.324Z,35.90
2018-12-19T18:36:07.461Z,35.58
2018-12-19T18:37:42.535Z,34.88
2018-12-19T18:39:17.658Z,33.80
2018-12-19T18:40:52.724Z,35.55
2018-12-19T18:42:27.847Z,35.43
2018-12-19T18:44:02.976Z,35.17
2018-12-19T18:45:38.040Z,35.15
2018-12-19T18:47:13.204Z,33.83
2018-12-19T18:48:48.301Z,34.63
2018-12-19T18:50:23.362Z,35.20
2018-12-19T18:51:58.408Z,32.53
2018-12-19T18:53:33.511Z,34.18
2018-12-19T18:55:09.281Z,33.05
2018-12-19T18:56:44.369Z,35.25
2018-12-19T18:58:19.509Z,35.05
2018-12-19T18:59:54.686Z,34.03
2018-12-19T19:01:30.352Z,34.45
2018-12-19T19:03:05.657Z,34.18
2018-12-19T19:04:47.267Z,34.67
2018-12-19T19:06:22.527Z,34.20
2018-12-19T19:07:57.757Z,33.73
2018-12-19T19:09:32.939Z,33.18
2018-12-19T19:11:08.023Z,33.02
2018-12-19T19:12:43.103Z,32.85
2018-12-19T19:14:18.389Z,32.38
2018-12-19T19:15:53.989Z,33.53
2018-12-19T19:17:29.686Z,31.48
2018-12-19T19:19:04.861Z,34.60
2018-12-19T19:20:40.350Z,34.33
2018-12-19T19:22:15.418Z,31.80
2018-12-19T19:25:30.142Z,31.62
2018-12-19T19:27:10.375Z,32.35
2018-12-19T19:28:45.979Z,32.90
2018-12-19T19:30:22.846Z,32.67
2018-12-19T19:31:58.365Z,31.52
2018-12-19T19:33:33.473Z,32.93
2018-12-19T19:35:08.870Z,32.30
2018-12-19T19:36:43.969Z,35.70
2018-12-19T19:38:19.092Z,31.90
2018-12-19T19:39:54.149Z,33.35
2018-12-19T19:41:30.338Z,31.45
2018-12-19T19:43:05.638Z,32.25
2018-12-19T19:44:40.669Z,31.35
2018-12-19T19:46:16.039Z,32.13
2018-12-19T19:47:51.497Z,31.07
2018-12-19T19:49:26.645Z,32.73
2018-12-19T19:51:01.734Z,33.40
2018-12-19T19:52:36.759Z,32.00
2018-12-19T19:54:11.878Z,31.42
2018-12-19T19:55:46.855Z,32.50
2018-12-19T19:57:21.946Z,34.70
2018-12-19T19:58:57.475Z,33.45
2018-12-19T20:00:33.763Z,31.90
2018-12-19T20:02:09.411Z,32.33
2018-12-19T20:03:44.981Z,31.42
2018-12-19T20:05:20.566Z,32.95
2018-12-19T20:07:00.089Z,32.05
2018-12-19T20:08:33.866Z,33.70
2018-12-19T20:10:09.788Z,32.45
2018-12-19T20:11:45.411Z,32.08
2018-12-19T20:13:21.029Z,33.23
2018-12-19T20:14:56.826Z,31.23
2018-12-19T20:16:34.558Z,33.15
2018-12-19T20:18:13.195Z,31.20
2018-12-19T20:19:48.832Z,30.02
2018-12-19T20:21:24.546Z,33.08
2018-12-19T20:23:00.369Z,33.48
2018-12-19T20:24:36.035Z,34.60
2018-12-19T20:26:11.603Z,33.13
2018-12-19T20:27:47.415Z,33.18
2018-12-19T20:29:23.253Z,34.15
2018-12-19T20:30:59.088Z,34.03
2018-12-19T20:32:34.767Z,33.90
2018-12-19T20:34:10.642Z,33.50
2018-12-19T20:35:46.515Z,36.60
2018-12-19T20:37:22.263Z,34.98
2018-12-19T20:38:58.240Z,33.90
2018-12-19T20:40:34.172Z,35.58
2018-12-19T20:42:09.805Z,36.95
2018-12-19T20:43:45.641Z,33.78
2018-12-19T20:45:21.429Z,35.03
2018-12-19T20:46:57.166Z,36.50
2018-12-19T20:48:33.024Z,34.70
2018-12-19T20:50:09.940Z,33.48
2018-12-19T20:51:45.891Z,34.92
2018-12-19T20:53:21.823Z,37.30
2018-12-19T20:54:57.753Z,35.68
2018-12-19T20:56:33.545Z,34.00
2018-12-19T20:58:09.464Z,34.00
2018-12-19T20:59:45.123Z,34.23
2018-12-19T21:01:20.942Z,34.10
2018-12-19T21:02:56.662Z,33.40
2018-12-19T21:04:32.454Z,34.48
2018-12-19T21:06:08.391Z,35.05
2018-12-19T21:07:44.506Z,32.55
2018-12-19T21:09:20.440Z,34.13
2018-12-19T21:10:56.245Z,33.60
2018-12-19T21:12:31.938Z,33.48
2018-12-19T21:14:08.269Z,34.13
2018-12-19T21:15:43.969Z,34.88
2018-12-19T21:17:24.575Z,35.13
2018-12-19T21:19:00.052Z,34.67
2018-12-19T21:20:35.538Z,34.90
2018-12-19T21:22:13.015Z,35.52
2018-12-19T21:23:48.435Z,34.25
2018-12-19T21:25:23.943Z,34.35
2018-12-19T21:26:59.387Z,34.40
2018-12-19T21:28:34.887Z,33.10
2018-12-19T21:30:11.693Z,35.95
2018-12-19T21:31:47.156Z,34.73
2018-12-19T21:33:22.485Z,36.63
2018-12-19T21:34:57.977Z,33.75
2018-12-19T21:36:33.682Z,36.77
2018-12-19T21:38:09.210Z,35.78
2018-12-19T21:39:44.740Z,36.17
2018-12-19T21:41:20.295Z,35.58
2018-12-19T21:42:56.585Z,36.90
2018-12-19T21:44:32.197Z,36.83
2018-12-19T21:46:07.988Z,35.95
2018-12-19T21:47:43.511Z,35.55
2018-12-19T21:49:19.247Z,38.13
2018-12-19T21:50:54.689Z,37.28
2018-12-19T21:52:30.576Z,36.95
2018-12-19T21:54:06.190Z,37.67
2018-12-19T21:55:41.664Z,37.20
2018-12-19T21:57:17.126Z,36.55
2018-12-19T21:58:52.536Z,37.15
2018-12-19T22:00:35.222Z,34.15
2018-12-19T22:02:10.780Z,34.75
2018-12-19T22:03:46.282Z,33.95
2018-12-19T22:05:21.623Z,34.23
2018-12-19T22:06:57.325Z,33.80
2018-12-19T22:08:32.747Z,32.50
2018-12-19T22:10:08.435Z,31.15
2018-12-19T22:11:44.104Z,30.95
2018-12-19T22:13:19.678Z,31.48
2018-12-19T22:14:55.015Z,31.50
2018-12-19T22:16:35.539Z,30.32
2018-12-19T22:18:16.148Z,31.35
2018-12-19T22:19:51.807Z,32.17
2018-12-19T22:21:26.803Z,32.95
2018-12-19T22:23:02.108Z,31.62
2018-12-19T22:24:37.125Z,32.60
2018-12-19T22:26:12.174Z,33.08
2018-12-19T22:27:47.299Z,31.82
2018-12-19T22:29:22.247Z,34.95
2018-12-19T22:30:57.251Z,32.78
2018-12-19T22:32:32.272Z,34.03
2018-12-19T22:34:07.656Z,32.42
2018-12-19T22:35:42.598Z,33.85
2018-12-19T22:37:17.569Z,32.17
2018-12-19T22:38:52.487Z,32.70
2018-12-19T22:40:27.485Z,33.88
2018-12-19T22:42:02.461Z,33.83
2018-12-19T22:43:37.458Z,34.60
2018-12-19T22:45:12.502Z,33.75
2018-12-19T22:46:47.598Z,35.00
2018-12-19T22:48:22.686Z,33.75
2018-12-19T22:49:57.787Z,35.08
2018-12-19T22:51:32.734Z,35.15
2018-12-19T22:53:07.666Z,35.10
2018-12-19T22:54:42.911Z,35.65
2018-12-19T22:56:17.862Z,35.17
2018-12-19T22:57:52.980Z,35.80
2018-12-19T22:59:27.979Z,36.17
2018-12-19T23:01:09.509Z,37.15
2018-12-19T23:02:50.471Z,37.03
2018-12-19T23:04:25.470Z,37.58
2018-12-19T23:06:00.469Z,39.92
2018-12-19T23:07:35.495Z,37.05
2018-12-19T23:09:10.604Z,39.55
2018-12-19T23:10:45.555Z,38.63
2018-12-19T23:12:20.592Z,38.38
2018-12-19T23:13:56.145Z,39.40
2018-12-19T23:15:31.385Z,37.53
2018-12-19T23:17:11.357Z,38.78
2018-12-19T23:18:47.030Z,37.85
2018-12-19T23:20:22.271Z,38.08
2018-12-19T23:23:49.734Z,36.13
2018-12-19T23:25:24.804Z,38.48
2018-12-19T23:27:00.260Z,38.40
2018-12-19T23:28:35.455Z,39.70
2018-12-19T23:30:11.284Z,37.50
2018-12-19T23:31:51.812Z,36.88
2018-12-19T23:33:38.016Z,37.42
2018-12-19T23:35:24.165Z,36.20
2018-12-19T23:36:59.256Z,36.93
2018-12-19T23:39:01.479Z,35.50
2018-12-19T23:40:36.548Z,37.20
2018-12-19T23:42:11.683Z,39.38
2018-12-19T23:43:46.698Z,37.65
2018-12-19T23:45:21.840Z,36.85
2018-12-19T23:46:58.070Z,36.35
2018-12-19T23:48:33.325Z,38.02
2018-12-19T23:50:10.879Z,37.73
2018-12-19T23:51:46.594Z,37.53
2018-12-19T23:53:22.523Z,37.23
2018-12-19T23:54:58.078Z,38.10
2018-12-19T23:56:33.495Z,38.85
2018-12-19T23:58:09.110Z,38.28
2018-12-19T23:59:44.723Z,38.13
